Time;durP1;ratioP1;P1;durP2;ratioP2;P2;SDS_P1;SDS_P2;PMS_P1;PMS_P2;Temp;Humidity;BMP_temperature;BMP_pressure;BME280_temperature;BME280_humidity;BME280_pressure;Samples;Min_cycle;Max_cycle;Signal;HPM_P1;HPM_P2
2021/12/07 00:00:38;;;;;;;6.03;4.73;;;3.80;99.90;;;;;;4933598;29;20223;-59
2021/12/07 00:03:05;;;;;;;6.20;4.30;;;3.70;99.90;;;;;;4925413;29;20192;-59
2021/12/07 00:05:32;;;;;;;6.10;4.53;;;3.60;99.90;;;;;;4938219;29;20243;-58
2021/12/07 00:07:59;;;;;;;4.47;3.50;;;3.60;99.90;;;;;;4942018;29;20250;-58
2021/12/07 00:10:26;;;;;;;3.50;2.90;;;3.60;99.90;;;;;;4936752;29;20296;-58
2021/12/07 00:12:53;;;;;;;4.17;3.77;;;3.40;1.00;;;;;;4929920;29;20234;-58
2021/12/07 00:15:23;;;;;;;4.43;4.03;;;3.30;1.00;;;;;;4940821;29;20247;-58
2021/12/07 00:17:52;;;;;;;6.57;4.60;;;3.20;99.90;;;;;;4925362;29;20218;-58
2021/12/07 00:20:21;;;;;;;8.17;4.63;;;3.00;1.00;;;;;;4924265;29;20231;-58
2021/12/07 00:22:52;;;;;;;5.50;4.17;;;2.90;1.00;;;;;;4939903;29;20222;-58
2021/12/07 00:25:19;;;;;;;6.00;5.23;;;2.90;1.00;;;;;;4940480;29;20570;-58
2021/12/07 00:27:46;;;;;;;6.07;5.17;;;3.00;1.00;;;;;;4926218;29;20206;-58
2021/12/07 00:30:14;;;;;;;8.40;5.67;;;2.90;1.00;;;;;;4941848;29;20199;-58
2021/12/07 00:32:49;;;;;;;5.03;4.53;;;2.90;1.00;;;;;;4941315;29;20652;-59
2021/12/07 00:38:17;;;;;;;6.97;5.43;;;2.90;32.80;;;;;;4923658;29;20671;-59
2021/12/07 00:40:46;;;;;;;6.80;5.33;;;2.90;82.10;;;;;;4923723;29;20683;-58
2021/12/07 00:43:14;;;;;;;6.87;5.60;;;2.90;99.90;;;;;;4940192;29;20254;-58
2021/12/07 00:45:45;;;;;;;6.87;6.10;;;2.80;99.90;;;;;;4942664;29;20191;-58
2021/12/07 00:48:16;;;;;;;8.33;6.03;;;2.90;99.90;;;;;;4926256;29;20254;-58
2021/12/07 00:50:46;;;;;;;7.30;6.27;;;2.80;99.90;;;;;;4907870;29;20597;-59
2021/12/07 00:53:13;;;;;;;8.00;6.83;;;2.80;1.00;;;;;;4924271;29;20195;-58
2021/12/07 00:55:47;;;;;;;11.10;6.97;;;2.90;1.00;;;;;;4923942;28;20262;-59
2021/12/07 00:58:18;;;;;;;7.30;6.47;;;2.80;1.00;;;;;;4908909;29;20214;-59
2021/12/07 01:01:00;;;;;;;7.53;6.00;;;2.80;1.00;;;;;;4926226;29;20218;-59
2021/12/07 01:03:29;;;;;;;7.17;5.80;;;2.80;1.00;;;;;;4942186;29;20213;-58
2021/12/07 01:09:05;;;;;;;8.33;6.17;;;2.80;1.00;;;;;;4894349;29;20651;-59
2021/12/07 01:25:35;;;;;;;7.83;6.07;;;2.90;1.00;;;;;;4929326;29;20195;-58
2021/12/07 01:28:11;;;;;;;7.10;5.93;;;2.80;1.00;;;;;;4941487;28;20283;-58
2021/12/07 01:30:56;;;;;;;8.33;6.07;;;2.80;1.00;;;;;;4941924;29;20202;-58
2021/12/07 01:34:02;;;;;;;7.70;6.10;;;2.90;99.90;;;;;;4927899;29;20718;-58
2021/12/07 02:00:14;;;;;;;8.57;6.03;;;2.90;99.90;;;;;;4921923;29;20215;-58
2021/12/07 02:02:42;;;;;;;5.33;4.57;;;3.00;99.90;;;;;;4913018;29;20750;-58
2021/12/07 02:05:10;;;;;;;6.13;5.53;;;3.00;99.90;;;;;;4928797;29;20238;-58
2021/12/07 02:07:38;;;;;;;5.80;4.47;;;2.90;99.90;;;;;;4922127;29;20219;-58
2021/12/07 02:10:13;;;;;;;6.60;5.90;;;2.90;99.90;;;;;;4923027;29;20254;-58
2021/12/07 02:12:46;;;;;;;7.30;5.70;;;2.90;99.90;;;;;;4917723;29;20214;-58
2021/12/07 02:15:20;;;;;;;6.30;5.37;;;3.00;99.90;;;;;;4939085;29;20195;-58
2021/12/07 02:17:48;;;;;;;5.27;4.77;;;3.00;1.00;;;;;;4941589;29;20230;-58
2021/12/07 02:20:16;;;;;;;5.70;5.20;;;3.10;1.00;;;;;;4939257;29;20285;-58
2021/12/07 02:22:44;;;;;;;4.40;4.00;;;3.00;1.00;;;;;;4940773;29;20198;-58
2021/12/07 02:25:16;;;;;;;7.73;7.03;;;3.10;99.90;;;;;;4928270;29;20191;-58
2021/12/07 02:27:45;;;;;;;6.70;6.00;;;3.00;99.90;;;;;;4931499;29;20226;-58
2021/12/07 02:30:16;;;;;;;5.77;5.27;;;3.00;1.00;;;;;;4923023;29;20533;-58
2021/12/07 02:32:44;;;;;;;5.43;4.93;;;3.00;1.00;;;;;;4928361;29;20274;-58
2021/12/07 02:35:22;;;;;;;4.90;3.83;;;3.00;99.90;;;;;;4923140;29;20234;-59
2021/12/07 02:37:54;;;;;;;4.23;3.83;;;3.00;1.00;;;;;;4923486;29;20195;-59
2021/12/07 02:40:22;;;;;;;5.07;3.57;;;3.00;1.00;;;;;;4925095;29;20750;-58
2021/12/07 02:42:50;;;;;;;4.80;3.83;;;3.00;1.00;;;;;;4940418;29;20192;-59
2021/12/07 02:45:20;;;;;;;4.90;3.20;;;3.00;1.00;;;;;;4923064;29;20231;-59
2021/12/07 02:47:47;;;;;;;4.73;3.70;;;3.00;1.00;;;;;;4923603;29;20188;-59
2021/12/07 02:50:15;;;;;;;3.67;3.13;;;3.10;1.00;;;;;;4921214;29;20254;-58
2021/12/07 02:52:42;;;;;;;4.10;3.47;;;3.10;1.00;;;;;;4923927;29;20199;-58
2021/12/07 02:55:10;;;;;;;9.90;3.50;;;3.00;1.00;;;;;;4912830;29;20222;-58
2021/12/07 02:57:37;;;;;;;4.00;3.53;;;3.00;1.00;;;;;;4923133;29;20213;-59
2021/12/07 03:00:14;;;;;;;4.07;3.67;;;3.00;1.00;;;;;;4912209;29;20321;-59
2021/12/07 03:02:50;;;;;;;4.37;3.60;;;3.00;1.00;;;;;;4921736;29;20753;-59
2021/12/07 03:05:32;;;;;;;3.70;3.30;;;3.10;1.00;;;;;;4910371;29;20234;-58
2021/12/07 03:27:08;;;;;;;17.43;12.80;;;3.10;1.00;;;;;;4937362;28;20203;-58
2021/12/07 03:29:36;;;;;;;18.03;14.07;;;3.00;99.90;;;;;;4920136;29;20279;-59
2021/12/07 03:32:04;;;;;;;18.70;14.60;;;3.00;99.90;;;;;;4925447;29;20204;-58
2021/12/07 03:34:32;;;;;;;19.07;15.03;;;2.90;99.90;;;;;;4942184;29;20770;-59
2021/12/07 03:36:59;;;;;;;22.60;15.73;;;2.90;99.90;;;;;;4943402;29;20672;-58
2021/12/07 03:39:26;;;;;;;21.43;16.27;;;2.90;99.90;;;;;;4916824;29;20204;-59
2021/12/07 03:41:53;;;;;;;21.63;15.30;;;2.80;99.90;;;;;;4926165;29;20222;-58
2021/12/07 03:44:21;;;;;;;26.13;17.10;;;2.80;99.90;;;;;;4941709;29;20191;-59
2021/12/07 03:46:49;;;;;;;21.60;16.17;;;2.80;99.90;;;;;;4926885;29;20219;-58
2021/12/07 03:49:17;;;;;;;20.70;15.13;;;2.80;99.90;;;;;;4927563;29;20203;-58
2021/12/07 03:51:44;;;;;;;19.00;14.93;;;2.70;99.90;;;;;;4942556;29;20275;-58
2021/12/07 03:54:12;;;;;;;19.20;14.30;;;2.70;99.90;;;;;;4924952;29;20242;-58
2021/12/07 03:56:42;;;;;;;19.87;14.93;;;2.60;99.90;;;;;;4925470;29;20327;-58
2021/12/07 03:59:09;;;;;;;18.63;14.20;;;2.60;99.90;;;;;;4926368;29;20207;-58
2021/12/07 04:01:36;;;;;;;17.77;13.33;;;2.60;99.90;;;;;;4943040;28;20218;-59
2021/12/07 04:04:04;;;;;;;17.90;14.00;;;2.60;99.90;;;;;;4910750;29;20610;-58
2021/12/07 04:06:32;;;;;;;17.73;12.83;;;2.60;99.90;;;;;;4933040;29;20663;-58
2021/12/07 04:09:00;;;;;;;20.13;14.43;;;2.60;99.90;;;;;;4926210;29;20203;-58
2021/12/07 04:11:27;;;;;;;18.83;14.63;;;2.60;99.90;;;;;;4942509;29;20199;-58
2021/12/07 04:13:54;;;;;;;19.07;14.50;;;2.50;99.90;;;;;;4931239;29;20222;-58
2021/12/07 04:16:25;;;;;;;24.07;15.20;;;2.60;99.90;;;;;;4911264;29;20287;-58
2021/12/07 04:18:55;;;;;;;21.47;16.47;;;2.60;99.90;;;;;;4929105;29;20766;-58
2021/12/07 04:21:22;;;;;;;21.57;16.40;;;2.50;99.90;;;;;;4930788;29;20270;-57
2021/12/07 04:23:49;;;;;;;24.77;17.93;;;2.60;99.90;;;;;;4927745;29;20199;-59
2021/12/07 04:26:16;;;;;;;26.60;17.80;;;2.60;99.90;;;;;;4941749;29;20261;-58
2021/12/07 04:28:43;;;;;;;26.67;18.33;;;2.50;99.90;;;;;;4942618;28;20199;-58
2021/12/07 04:31:11;;;;;;;29.47;20.47;;;2.60;1.00;;;;;;4924898;29;20643;-58
2021/12/07 04:33:39;;;;;;;33.67;22.97;;;2.60;1.00;;;;;;4927616;29;20206;-58
2021/12/07 04:36:08;;;;;;;34.67;23.37;;;2.60;1.00;;;;;;4931103;29;20262;-57
2021/12/07 04:38:35;;;;;;;33.83;22.37;;;2.60;1.00;;;;;;4940385;29;20299;-57
2021/12/07 04:41:03;;;;;;;35.97;23.60;;;2.60;1.00;;;;;;4930306;29;20297;-58
2021/12/07 04:43:30;;;;;;;38.27;23.57;;;2.60;1.00;;;;;;4925996;29;20202;-58
2021/12/07 04:48:49;;;;;;;39.83;23.17;;;2.60;1.00;;;;;;4941595;29;20707;-58
2021/12/07 04:59:28;;;;;;;41.43;26.07;;;2.60;50.30;;;;;;4925792;29;20207;-58
2021/12/07 05:01:56;;;;;;;37.00;23.57;;;2.70;99.90;;;;;;4941618;29;20223;-58
2021/12/07 05:04:27;;;;;;;38.70;25.03;;;2.70;99.90;;;;;;4925756;29;20238;-58
2021/12/07 05:07:03;;;;;;;38.67;25.37;;;2.70;99.90;;;;;;4942509;29;20202;-58
2021/12/07 05:10:05;;;;;;;38.87;24.07;;;2.70;99.90;;;;;;4941908;29;20838;-58
2021/12/07 05:12:33;;;;;;;37.23;24.03;;;2.70;99.90;;;;;;4940912;29;20206;-59
2021/12/07 05:15:16;;;;;;;36.90;25.20;;;2.70;1.00;;;;;;4943340;29;20296;-58
2021/12/07 05:18:01;;;;;;;37.73;24.53;;;2.70;1.00;;;;;;4913809;29;20571;-58
2021/12/07 05:34:31;;;;;;;45.03;26.07;;;2.80;48.60;;;;;;4941416;29;20538;-58
2021/12/07 05:39:52;;;;;;;39.00;23.37;;;2.90;1.00;;;;;;4940344;29;20250;-58
2021/12/07 05:42:22;;;;;;;41.63;24.30;;;2.80;1.00;;;;;;4925527;28;20659;-58
2021/12/07 05:44:53;;;;;;;45.67;25.67;;;2.80;1.00;;;;;;4913536;29;20626;-58
2021/12/07 05:47:20;;;;;;;45.93;27.97;;;2.80;1.00;;;;;;4940471;29;20634;-58
2021/12/07 05:49:48;;;;;;;44.57;25.73;;;2.90;1.00;;;;;;4941925;29;20195;-58
2021/12/07 05:52:16;;;;;;;45.43;26.67;;;2.90;1.00;;;;;;4910636;29;20583;-58
2021/12/07 05:54:43;;;;;;;44.43;26.37;;;2.90;1.00;;;;;;4923945;29;20227;-58
2021/12/07 05:57:10;;;;;;;44.20;26.47;;;3.00;17.40;;;;;;4941954;28;20289;-58
2021/12/07 05:59:37;;;;;;;46.80;27.40;;;3.00;68.40;;;;;;4941165;29;20220;-58
2021/12/07 06:02:04;;;;;;;44.23;26.23;;;3.00;99.90;;;;;;4924467;29;20278;-58
2021/12/07 06:04:32;;;;;;;48.17;28.27;;;3.10;99.90;;;;;;4939269;29;20932;-59
2021/12/07 06:06:59;;;;;;;44.93;27.90;;;3.00;99.90;;;;;;4934733;29;20218;-58
2021/12/07 06:09:27;;;;;;;49.70;31.37;;;3.00;89.40;;;;;;4941522;29;20205;-59
2021/12/07 06:11:54;;;;;;;45.57;28.10;;;3.00;99.90;;;;;;4931710;29;20266;-58
2021/12/07 06:14:29;;;;;;;46.57;28.03;;;3.00;74.60;;;;;;4936434;29;20211;-59
2021/12/07 06:16:56;;;;;;;45.87;30.10;;;2.90;6.40;;;;;;4920380;29;20202;-58
2021/12/07 06:19:27;;;;;;;45.73;28.40;;;2.90;4.20;;;;;;4924778;29;20203;-58
2021/12/07 06:21:54;;;;;;;45.77;28.90;;;2.90;40.70;;;;;;4939019;29;20219;-58
2021/12/07 06:24:21;;;;;;;49.70;30.10;;;3.00;99.90;;;;;;4927400;29;20199;-59
2021/12/07 06:26:48;;;;;;;50.10;30.93;;;2.90;99.90;;;;;;4941012;28;20529;-58
2021/12/07 06:29:15;;;;;;;54.63;32.87;;;3.00;99.90;;;;;;4940174;29;21201;-59
2021/12/07 06:31:42;;;;;;;55.33;32.70;;;3.00;99.90;;;;;;4940256;29;20277;-59
2021/12/07 06:34:10;;;;;;;54.83;34.87;;;3.00;99.90;;;;;;4926814;29;20213;-59
2021/12/07 06:36:38;;;;;;;57.90;35.97;;;2.90;99.90;;;;;;4907987;29;20261;-58
2021/12/07 06:39:07;;;;;;;60.73;35.07;;;2.90;99.90;;;;;;4939188;29;20258;-58
2021/12/07 06:41:34;;;;;;;60.13;32.57;;;2.90;99.90;;;;;;4921666;29;21527;-58
2021/12/07 06:44:01;;;;;;;49.33;31.33;;;2.80;99.90;;;;;;4923815;29;20667;-58
2021/12/07 06:46:29;;;;;;;58.13;30.97;;;2.70;1.00;;;;;;4928904;29;20434;-58
2021/12/07 06:48:56;;;;;;;52.87;30.20;;;2.60;1.00;;;;;;4939942;29;20192;-58
2021/12/07 06:51:23;;;;;;;52.53;28.40;;;2.50;1.00;;;;;;4922754;29;20222;-58
2021/12/07 06:53:50;;;;;;;49.13;27.40;;;2.50;32.80;;;;;;4940432;28;20729;-58
2021/12/07 06:56:17;;;;;;;51.80;27.40;;;2.40;99.90;;;;;;4944035;28;20227;-58
2021/12/07 06:58:44;;;;;;;47.63;26.97;;;2.40;1.00;;;;;;4917162;29;20615;-59
2021/12/07 07:01:11;;;;;;;47.00;28.07;;;2.30;1.00;;;;;;4943759;29;20227;-58
2021/12/07 07:03:40;;;;;;;49.53;27.67;;;2.30;99.90;;;;;;4933648;29;20242;-59
2021/12/07 07:06:08;;;;;;;51.20;27.13;;;2.30;1.00;;;;;;4946209;29;20640;-58
2021/12/07 07:08:36;;;;;;;46.07;28.43;;;2.30;21.10;;;;;;4944192;29;20199;-59
2021/12/07 07:11:05;;;;;;;50.47;27.50;;;2.40;3.30;;;;;;4927729;29;20623;-59
2021/12/07 07:13:33;;;;;;;50.47;27.40;;;2.60;1.00;;;;;;4940209;29;20235;-58
2021/12/07 07:16:01;;;;;;;57.57;27.67;;;2.70;1.00;;;;;;4929022;29;20679;-58
2021/12/07 07:18:28;;;;;;;47.47;26.53;;;2.60;1.00;;;;;;4931274;29;20208;-58
2021/12/07 07:20:56;;;;;;;44.10;26.43;;;2.60;1.00;;;;;;4925327;29;20660;-58
2021/12/07 07:23:24;;;;;;;50.07;28.87;;;2.50;1.00;;;;;;4924438;29;20260;-58
2021/12/07 07:25:55;;;;;;;48.33;25.93;;;2.40;1.00;;;;;;4942900;29;20199;-58
2021/12/07 07:28:28;;;;;;;46.00;25.00;;;2.30;1.00;;;;;;4941034;28;20227;-59
2021/12/07 07:30:56;;;;;;;45.97;24.30;;;2.30;1.00;;;;;;4942963;29;20830;-59
2021/12/07 07:33:24;;;;;;;40.50;24.63;;;2.40;1.00;;;;;;4942419;28;20706;-58
2021/12/07 07:35:51;;;;;;;47.00;24.80;;;2.40;25.50;;;;;;4926270;29;20634;-59
2021/12/07 07:38:19;;;;;;;51.30;25.47;;;2.20;6.20;;;;;;4941974;29;20199;-59
2021/12/07 07:40:47;;;;;;;49.57;23.70;;;2.30;24.90;;;;;;4922768;29;20228;-59
2021/12/07 07:43:16;;;;;;;43.33;24.97;;;2.30;99.90;;;;;;4926730;29;20211;-58
2021/12/07 07:46:06;;;;;;;53.30;25.67;;;2.50;99.90;;;;;;4934028;29;20321;-59
2021/12/07 07:48:33;;;;;;;57.30;25.80;;;2.60;99.90;;;;;;4944906;29;20297;-58
2021/12/07 07:51:01;;;;;;;44.53;25.90;;;2.70;99.90;;;;;;4946260;29;20557;-58
2021/12/07 07:53:28;;;;;;;54.57;25.73;;;2.80;99.90;;;;;;4952799;29;20262;-59
2021/12/07 07:55:58;;;;;;;62.60;27.83;;;2.90;99.90;;;;;;4932330;29;20286;-60
2021/12/07 07:58:25;;;;;;;52.30;24.90;;;3.00;99.90;;;;;;4955094;29;20202;-59
2021/12/07 08:00:53;;;;;;;53.20;25.63;;;3.00;99.90;;;;;;4935919;29;20286;-59
2021/12/07 08:03:20;;;;;;;69.27;29.13;;;3.20;99.90;;;;;;4932762;29;21226;-59
2021/12/07 08:05:47;;;;;;;61.20;27.70;;;3.20;99.90;;;;;;4936872;29;20719;-58
2021/12/07 08:08:19;;;;;;;58.23;27.73;;;3.30;99.90;;;;;;4952134;29;20215;-58
2021/12/07 08:10:46;;;;;;;58.97;27.60;;;3.20;99.90;;;;;;4932477;29;20258;-58
2021/12/07 08:13:16;;;;;;;54.97;27.57;;;3.20;99.90;;;;;;4949411;28;20217;-58
2021/12/07 08:15:44;;;;;;;53.40;27.30;;;3.30;99.90;;;;;;4933893;29;20203;-58
2021/12/07 08:18:12;;;;;;;62.37;27.63;;;3.40;99.90;;;;;;4935387;29;20242;-59
2021/12/07 08:20:41;;;;;;;54.83;27.67;;;3.50;99.90;;;;;;4937781;29;20207;-58
2021/12/07 08:23:08;;;;;;;61.67;27.57;;;3.50;1.00;;;;;;4934207;28;20751;-59
2021/12/07 08:25:40;;;;;;;55.30;26.87;;;3.50;1.00;;;;;;4923357;29;20199;-58
2021/12/07 08:28:07;;;;;;;52.00;26.27;;;3.50;99.90;;;;;;4922527;29;20287;-58
2021/12/07 08:30:36;;;;;;;45.83;24.53;;;3.40;1.00;;;;;;4932265;28;20206;-58
2021/12/07 08:33:04;;;;;;;60.23;26.63;;;3.40;1.00;;;;;;4925963;29;20199;-58
2021/12/07 08:35:31;;;;;;;52.33;25.80;;;3.60;1.00;;;;;;4943462;28;20616;-58
2021/12/07 08:37:59;;;;;;;50.23;26.33;;;3.80;1.00;;;;;;4942038;28;20198;-58
2021/12/07 08:40:29;;;;;;;58.90;24.77;;;3.90;96.30;;;;;;4942853;29;20226;-58
2021/12/07 08:42:56;;;;;;;56.40;25.47;;;4.00;10.70;;;;;;4924320;29;20243;-58
2021/12/07 08:45:24;;;;;;;52.30;26.33;;;4.00;1.00;;;;;;4942943;28;20273;-58
2021/12/07 08:47:51;;;;;;;47.60;25.30;;;4.40;1.00;;;;;;4923278;29;20737;-58
2021/12/07 08:50:23;;;;;;;50.30;26.23;;;4.70;1.00;;;;;;4936020;29;20291;-58
2021/12/07 08:52:52;;;;;;;49.17;24.90;;;4.80;99.90;;;;;;4940879;28;20203;-58
2021/12/07 09:00:53;;;;;;;46.53;23.83;;;5.20;99.90;;;;;;4923959;29;20234;-58
2021/12/07 09:03:21;;;;;;;45.57;20.60;;;5.70;1.00;;;;;;4939218;28;20228;-58
2021/12/07 09:05:48;;;;;;;37.27;17.77;;;6.00;1.00;;;;;;4939570;29;20239;-58
2021/12/07 09:08:16;;;;;;;37.53;17.17;;;6.20;14.10;;;;;;4939755;28;20241;-58
2021/12/07 09:10:43;;;;;;;30.70;15.20;;;6.20;69.60;;;;;;4924398;29;20275;-58
2021/12/07 09:13:11;;;;;;;29.53;14.63;;;6.50;1.00;;;;;;4943133;28;20855;-58
2021/12/07 09:15:39;;;;;;;27.57;14.00;;;7.40;99.90;;;;;;4943432;29;20199;-58
2021/12/07 09:18:06;;;;;;;25.90;13.97;;;7.30;99.90;;;;;;4940693;28;20202;-59
2021/12/07 09:20:33;;;;;;;33.60;14.10;;;7.30;99.90;;;;;;4924633;29;20711;-58
2021/12/07 09:23:00;;;;;;;25.47;13.27;;;7.80;69.00;;;;;;4921944;29;20234;-59
2021/12/07 09:25:28;;;;;;;23.70;14.30;;;7.40;99.90;;;;;;4933611;29;20202;-58
2021/12/07 09:27:55;;;;;;;30.47;14.50;;;7.50;99.90;;;;;;4930985;29;20254;-58
2021/12/07 09:30:22;;;;;;;28.57;15.53;;;6.90;99.90;;;;;;4941440;29;20230;-60
2021/12/07 09:32:50;;;;;;;34.70;15.50;;;6.30;1.00;;;;;;4939110;29;20201;-58
2021/12/07 09:35:18;;;;;;;29.83;16.57;;;5.90;1.30;;;;;;4940228;28;20207;-59
2021/12/07 09:37:46;;;;;;;34.70;17.30;;;5.60;99.90;;;;;;4941028;29;20218;-58
2021/12/07 09:40:24;;;;;;;31.17;17.67;;;5.40;1.00;;;;;;5113955;27;20313;-58
2021/12/07 09:42:52;;;;;;;35.87;17.57;;;5.40;1.00;;;;;;5102202;28;20514;-59
2021/12/07 09:45:19;;;;;;;32.67;19.30;;;5.30;1.00;;;;;;5101442;28;20279;-58
2021/12/07 09:47:47;;;;;;;34.27;19.27;;;5.30;1.00;;;;;;5097208;28;20186;-58
2021/12/07 09:50:18;;;;;;;33.67;17.77;;;5.50;1.00;;;;;;5098995;28;20189;-60
2021/12/07 09:52:47;;;;;;;34.90;17.53;;;5.50;99.90;;;;;;5067567;28;20637;-59
2021/12/07 09:55:14;;;;;;;32.03;17.30;;;5.40;99.90;;;;;;5080366;28;20547;-59
2021/12/07 09:57:41;;;;;;;29.30;17.43;;;5.40;99.90;;;;;;5099568;28;20236;-59
2021/12/07 10:00:11;;;;;;;29.07;16.50;;;5.50;99.90;;;;;;5079661;28;20217;-60
2021/12/07 10:02:38;;;;;;;33.20;17.53;;;5.60;99.90;;;;;;5097665;28;20198;-59
2021/12/07 10:05:12;;;;;;;32.33;18.50;;;5.50;99.90;;;;;;5066193;28;20218;-60
2021/12/07 10:07:39;;;;;;;36.47;16.60;;;5.80;99.90;;;;;;5056726;28;20715;-59
2021/12/07 10:10:31;;;;;;;28.43;15.73;;;5.80;1.00;;;;;;5081719;28;20256;-59
2021/12/07 10:12:59;;;;;;;30.43;16.03;;;5.40;99.90;;;;;;5081848;28;20654;-59
2021/12/07 10:15:27;;;;;;;30.47;16.37;;;5.30;99.90;;;;;;5058136;28;20198;-59
2021/12/07 10:18:05;;;;;;;36.03;16.60;;;5.30;99.90;;;;;;5057244;28;20237;-59
2021/12/07 10:20:42;;;;;;;34.13;15.63;;;5.30;99.90;;;;;;5080900;28;20574;-59
2021/12/07 10:23:19;;;;;;;34.17;15.97;;;5.20;99.90;;;;;;5063061;28;20195;-59
2021/12/07 10:26:14;;;;;;;29.30;15.13;;;5.30;99.90;;;;;;5078886;28;20202;-59
2021/12/07 10:28:45;;;;;;;31.07;14.87;;;5.30;99.90;;;;;;5077461;28;20260;-59
2021/12/07 10:31:34;;;;;;;34.03;15.33;;;5.60;99.90;;;;;;5080322;28;20202;-58
2021/12/07 10:34:11;;;;;;;28.73;15.17;;;5.80;14.20;;;;;;5081381;28;20190;-60
2021/12/07 10:36:44;;;;;;;23.47;14.07;;;6.30;1.00;;;;;;5057497;28;20232;-59
2021/12/07 10:39:19;;;;;;;28.17;13.70;;;6.50;1.00;;;;;;5070876;28;20293;-59
2021/12/07 10:41:53;;;;;;;23.70;13.60;;;7.40;99.90;;;;;;5060230;28;20516;-57
2021/12/07 10:44:24;;;;;;;25.50;14.00;;;8.20;99.90;;;;;;5061787;28;20194;-59
2021/12/07 10:46:52;;;;;;;22.50;11.17;;;8.90;1.00;;;;;;5043779;28;20228;-59
2021/12/07 10:49:28;;;;;;;23.80;10.20;;;8.30;1.00;;;;;;5044692;28;20203;-57
2021/12/07 10:52:12;;;;;;;24.13;11.13;;;7.50;1.00;;;;;;5047978;28;20219;-57
2021/12/07 10:54:48;;;;;;;27.17;11.77;;;6.80;99.90;;;;;;5029912;28;20207;-58
2021/12/07 10:57:22;;;;;;;23.57;11.83;;;6.40;1.00;;;;;;5049079;28;20195;-57
2021/12/07 11:00:11;;;;;;;16.80;10.77;;;6.30;1.00;;;;;;5049150;28;20724;-57
2021/12/07 11:02:42;;;;;;;22.10;10.27;;;6.20;1.00;;;;;;5048732;28;20200;-59
2021/12/07 11:05:33;;;;;;;19.83;11.10;;;6.30;1.00;;;;;;5041891;28;20250;-59
2021/12/07 11:08:02;;;;;;;20.83;10.43;;;6.10;1.00;;;;;;5020953;28;20299;-59
2021/12/07 11:10:33;;;;;;;18.27;10.63;;;6.10;1.00;;;;;;5023281;28;22809;-58
2021/12/07 11:13:15;;;;;;;18.53;9.40;;;6.10;1.00;;;;;;5047361;28;20601;-59
2021/12/07 11:15:55;;;;;;;25.77;9.63;;;6.10;1.00;;;;;;5046680;28;20200;-59
2021/12/07 11:18:23;;;;;;;17.80;7.37;;;6.30;1.00;;;;;;5038406;28;20849;-58
2021/12/07 11:20:52;;;;;;;24.13;11.83;;;6.50;1.00;;;;;;5029900;28;20230;-59
2021/12/07 11:23:26;;;;;;;31.63;16.17;;;6.50;99.90;;;;;;5045374;28;20282;-60
2021/12/07 11:31:18;;;;;;;12.93;5.97;;;7.10;1.00;;;;;;5043048;28;20466;-58
2021/12/07 11:33:47;;;;;;;16.73;5.77;;;8.80;1.00;;;;;;5042646;28;20202;-57
2021/12/07 11:36:21;;;;;;;16.00;6.40;;;9.00;99.90;;;;;;5046300;28;20203;-58
2021/12/07 11:38:48;;;;;;;13.93;6.17;;;8.20;1.00;;;;;;5057497;28;20238;-59
2021/12/07 11:41:26;;;;;;;12.57;6.20;;;7.80;1.00;;;;;;5066870;28;20301;-58
2021/12/07 11:44:01;;;;;;;12.43;6.27;;;8.00;1.00;;;;;;5066805;28;20186;-58
2021/12/07 11:46:29;;;;;;;16.00;5.67;;;8.00;1.00;;;;;;5082622;28;20194;-58
2021/12/07 11:49:20;;;;;;;16.77;6.03;;;8.90;1.00;;;;;;5082119;28;20207;-58
2021/12/07 11:51:49;;;;;;;16.53;5.70;;;9.20;99.90;;;;;;5063053;28;20630;-60
2021/12/07 11:54:18;;;;;;;15.87;6.80;;;9.20;1.00;;;;;;5065378;28;20194;-60
2021/12/07 11:56:50;;;;;;;12.20;5.60;;;9.40;99.90;;;;;;5068065;28;20187;-59
2021/12/07 11:59:20;;;;;;;15.47;5.97;;;10.10;99.90;;;;;;5066601;28;20215;-58
2021/12/07 12:01:48;;;;;;;15.70;6.60;;;9.70;99.90;;;;;;5063567;28;20203;-58
2021/12/07 12:04:18;;;;;;;14.27;6.27;;;9.10;99.90;;;;;;5063236;28;20215;-59
2021/12/07 12:06:50;;;;;;;20.33;7.23;;;10.00;99.90;;;;;;5059739;28;20232;-60
2021/12/07 12:09:18;;;;;;;17.23;8.67;;;11.30;1.00;;;;;;5066406;28;20213;-60
2021/12/07 12:12:22;;;;;;;27.10;10.00;;;11.50;1.00;;;;;;5063913;28;20618;-60
2021/12/07 12:15:09;;;;;;;16.17;5.77;;;11.20;1.00;;;;;;5076240;28;20213;-57
2021/12/07 12:17:54;;;;;;;13.53;6.03;;;9.70;2.90;;;;;;5036755;28;20306;-57
2021/12/07 12:20:47;;;;;;;14.20;7.23;;;8.60;99.90;;;;;;5054272;28;20232;-57
2021/12/07 12:23:42;;;;;;;14.20;6.57;;;8.90;99.90;;;;;;5067683;28;20194;-58
2021/12/07 12:26:11;;;;;;;15.03;6.33;;;9.50;99.90;;;;;;5067081;28;20591;-57
2021/12/07 12:28:47;;;;;;;20.07;8.70;;;9.90;41.40;;;;;;5066380;28;20199;-58
2021/12/07 12:31:15;;;;;;;18.30;8.20;;;10.00;16.10;;;;;;5068679;28;20191;-58
2021/12/07 12:33:52;;;;;;;16.80;8.07;;;9.90;81.30;;;;;;5056482;28;20246;-57
2021/12/07 12:36:22;;;;;;;14.67;7.53;;;9.60;67.60;;;;;;5071165;28;20194;-58
2021/12/07 12:39:05;;;;;;;16.43;8.63;;;9.60;4.40;;;;;;5053649;28;20282;-57
2021/12/07 12:41:32;;;;;;;19.63;8.40;;;9.40;99.90;;;;;;5036515;28;20587;-57
2021/12/07 12:44:09;;;;;;;26.40;12.30;;;9.20;99.90;;;;;;5018388;28;20207;-58
2021/12/07 12:46:37;;;;;;;19.90;8.67;;;8.90;99.90;;;;;;5036329;28;21117;-57
2021/12/07 12:49:10;;;;;;;17.30;9.47;;;8.50;99.90;;;;;;5035990;28;20203;-57
2021/12/07 12:51:49;;;;;;;18.47;10.30;;;8.40;1.00;;;;;;5005304;28;20188;-57
2021/12/07 12:54:18;;;;;;;17.13;9.83;;;8.20;99.90;;;;;;5036520;28;20190;-58
2021/12/07 12:56:46;;;;;;;18.67;9.90;;;7.90;1.00;;;;;;5033542;28;20244;-57
2021/12/07 12:59:13;;;;;;;21.63;9.23;;;7.90;1.00;;;;;;5035383;28;20840;-57
2021/12/07 13:01:43;;;;;;;20.57;9.93;;;7.80;1.00;;;;;;5034896;28;20192;-57
2021/12/07 13:04:22;;;;;;;19.57;10.00;;;7.30;1.00;;;;;;5032780;28;20807;-57
2021/12/07 13:07:23;;;;;;;18.20;10.20;;;7.00;1.00;;;;;;5035568;28;20200;-57
2021/12/07 13:09:56;;;;;;;25.50;10.67;;;6.80;1.00;;;;;;5019444;28;20208;-57
2021/12/07 13:12:27;;;;;;;22.67;9.57;;;6.90;1.00;;;;;;5035777;28;20721;-58
2021/12/07 13:15:04;;;;;;;23.40;8.90;;;6.70;1.00;;;;;;5017982;28;20200;-58
2021/12/07 13:17:42;;;;;;;22.83;8.60;;;6.50;1.00;;;;;;5016798;28;20281;-59
2021/12/07 13:20:29;;;;;;;16.43;7.77;;;6.80;1.00;;;;;;5032092;28;20210;-59
2021/12/07 13:23:09;;;;;;;21.50;7.03;;;6.70;1.00;;;;;;5036301;28;20188;-59
2021/12/07 13:25:47;;;;;;;15.03;6.80;;;6.60;1.00;;;;;;5034331;28;21167;-58
2021/12/07 13:28:24;;;;;;;15.03;6.27;;;6.50;1.00;;;;;;5017785;28;20191;-59
2021/12/07 13:31:08;;;;;;;15.87;6.10;;;6.40;1.00;;;;;;5033557;28;20207;-60
2021/12/07 13:33:39;;;;;;;14.37;8.60;;;6.30;1.00;;;;;;5032929;28;20295;-58
2021/12/07 13:36:30;;;;;;;18.10;6.13;;;6.30;1.00;;;;;;5035493;28;20254;-58
2021/12/07 13:39:12;;;;;;;12.07;5.37;;;6.10;1.00;;;;;;5035630;28;20235;-58
2021/12/07 13:42:09;;;;;;;12.77;5.70;;;6.00;1.00;;;;;;5033602;28;20242;-58
2021/12/07 13:44:58;;;;;;;14.43;6.53;;;6.00;1.00;;;;;;5037242;28;20290;-57
2021/12/07 13:47:32;;;;;;;12.13;6.63;;;5.90;1.00;;;;;;5031840;28;20245;-57
2021/12/07 13:50:06;;;;;;;16.83;6.20;;;5.80;1.00;;;;;;5035026;28;20212;-57
2021/12/07 13:52:42;;;;;;;40.90;20.90;;;5.70;1.00;;;;;;5020280;28;20231;-61
2021/12/07 13:55:15;;;;;;;27.40;12.57;;;5.60;1.00;;;;;;5032432;28;20203;-57
2021/12/07 13:57:45;;;;;;;21.10;8.87;;;5.50;1.00;;;;;;5035968;28;20200;-60
2021/12/07 14:00:32;;;;;;;19.63;11.13;;;5.40;1.00;;;;;;5020844;28;20290;-59
2021/12/07 14:03:04;;;;;;;52.47;29.00;;;5.40;1.00;;;;;;5036459;28;20204;-59
2021/12/07 14:05:38;;;;;;;20.60;8.17;;;6.20;1.00;;;;;;5032453;28;20283;-59
2021/12/07 14:08:08;;;;;;;19.13;13.90;;;5.20;1.00;;;;;;5033593;28;20659;-59
2021/12/07 14:10:52;;;;;;;21.93;11.77;;;5.20;1.00;;;;;;5035840;28;20231;-59
2021/12/07 14:13:20;;;;;;;16.83;8.63;;;5.20;1.00;;;;;;5035521;28;20216;-59
2021/12/07 14:16:06;;;;;;;18.30;11.20;;;5.00;1.00;;;;;;5036080;28;20206;-59
2021/12/07 14:18:35;;;;;;;13.47;9.63;;;5.00;1.00;;;;;;5020139;28;20269;-59
2021/12/07 14:21:04;;;;;;;19.53;7.03;;;4.90;1.00;;;;;;5033866;28;20220;-59
2021/12/07 14:23:37;;;;;;;14.30;6.77;;;4.80;25.30;;;;;;5020058;28;20210;-59
2021/12/07 14:26:09;;;;;;;13.50;5.73;;;4.70;45.90;;;;;;5036353;28;20176;-59
2021/12/07 14:28:36;;;;;;;14.20;6.73;;;4.70;78.80;;;;;;5040245;28;20750;-58
2021/12/07 14:31:04;;;;;;;12.63;5.80;;;4.60;99.90;;;;;;5040023;28;20671;-58
2021/12/07 14:33:36;;;;;;;13.37;7.90;;;4.50;99.90;;;;;;5041261;28;20199;-58
2021/12/07 14:36:04;;;;;;;24.67;11.80;;;4.50;99.90;;;;;;5045513;28;20230;-57
2021/12/07 14:38:33;;;;;;;31.03;14.40;;;4.30;99.90;;;;;;5032971;28;20235;-58
2021/12/07 14:41:13;;;;;;;21.90;11.03;;;4.30;99.90;;;;;;5057751;28;20254;-59
2021/12/07 14:43:41;;;;;;;36.87;21.33;;;4.30;99.90;;;;;;5068680;28;20196;-59
2021/12/07 14:46:11;;;;;;;24.23;11.07;;;4.20;99.90;;;;;;5068557;28;20244;-59
2021/12/07 14:48:39;;;;;;;14.00;7.00;;;4.10;99.90;;;;;;5069981;28;20222;-59
2021/12/07 14:51:11;;;;;;;20.37;6.77;;;4.00;99.90;;;;;;5073587;28;20561;-59